sensor_id;sensor_type;location;lat;lon;timestamp;pressure;altitude;pressure_sealevel;temperature;humidity
55801;BME280;41730;51.960;20.158;2023-01-31T00:01:12;99030.55;;;3.79;80.35
55801;BME280;41730;51.960;20.158;2023-01-31T00:03:44;99032.08;;;3.84;80.52
55801;BME280;41730;51.960;20.158;2023-01-31T00:06:19;99030.73;;;4.07;79.70
55801;BME280;41730;51.960;20.158;2023-01-31T00:08:52;99032.99;;;4.12;79.54
55801;BME280;41730;51.960;20.158;2023-01-31T00:11:25;99031.77;;;4.07;79.51
55801;BME280;41730;51.960;20.158;2023-01-31T00:13:58;99033.85;;;4.02;79.58
55801;BME280;41730;51.960;20.158;2023-01-31T00:16:31;99038.30;;;3.98;79.96
55801;BME280;41730;51.960;20.158;2023-01-31T00:19:04;99044.27;;;4.09;79.68
55801;BME280;41730;51.960;20.158;2023-01-31T00:21:35;99048.40;;;4.17;79.22
55801;BME280;41730;51.960;20.158;2023-01-31T00:24:08;99051.45;;;4.06;79.63
55801;BME280;41730;51.960;20.158;2023-01-31T00:26:39;99058.24;;;3.91;80.13
55801;BME280;41730;51.960;20.158;2023-01-31T00:29:11;99057.08;;;3.97;80.01
55801;BME280;41730;51.960;20.158;2023-01-31T00:31:43;99054.76;;;4.03;79.88
55801;BME280;41730;51.960;20.158;2023-01-31T00:34:15;99054.27;;;4.02;79.72
55801;BME280;41730;51.960;20.158;2023-01-31T00:36:47;99060.79;;;4.04;79.88
55801;BME280;41730;51.960;20.158;2023-01-31T00:39:18;99061.19;;;4.17;79.40
55801;BME280;41730;51.960;20.158;2023-01-31T00:41:51;99067.92;;;4.27;79.05
55801;BME280;41730;51.960;20.158;2023-01-31T00:44:23;99069.39;;;4.17;79.29
55801;BME280;41730;51.960;20.158;2023-01-31T00:46:54;99075.61;;;4.10;79.63
55801;BME280;41730;51.960;20.158;2023-01-31T00:49:26;99076.61;;;4.10;79.65
55801;BME280;41730;51.960;20.158;2023-01-31T00:51:57;99083.39;;;3.94;80.10
55801;BME280;41730;51.960;20.158;2023-01-31T00:54:29;99084.04;;;3.99;80.05
55801;BME280;41730;51.960;20.158;2023-01-31T00:57:01;99085.90;;;4.16;79.53
55801;BME280;41730;51.960;20.158;2023-01-31T00:59:33;99096.02;;;4.08;79.57
55801;BME280;41730;51.960;20.158;2023-01-31T01:02:05;99100.61;;;3.91;80.15
55801;BME280;41730;51.960;20.158;2023-01-31T01:04:38;99099.48;;;3.85;80.57
55801;BME280;41730;51.960;20.158;2023-01-31T01:07:10;99099.05;;;3.86;80.71
55801;BME280;41730;51.960;20.158;2023-01-31T01:09:42;99104.92;;;4.10;80.08
55801;BME280;41730;51.960;20.158;2023-01-31T01:12:14;99105.20;;;4.16;79.46
55801;BME280;41730;51.960;20.158;2023-01-31T01:14:46;99106.36;;;4.07;79.65
55801;BME280;41730;51.960;20.158;2023-01-31T01:17:18;99102.71;;;4.02;79.92
55801;BME280;41730;51.960;20.158;2023-01-31T01:19:50;99112.36;;;4.00;80.04
55801;BME280;41730;51.960;20.158;2023-01-31T01:22:22;99113.76;;;4.08;79.71
55801;BME280;41730;51.960;20.158;2023-01-31T01:24:54;99108.42;;;4.10;79.86
55801;BME280;41730;51.960;20.158;2023-01-31T01:27:26;99114.79;;;4.03;79.89
55801;BME280;41730;51.960;20.158;2023-01-31T01:29:59;99110.52;;;3.92;80.28
55801;BME280;41730;51.960;20.158;2023-01-31T01:32:31;99116.41;;;3.99;80.17
55801;BME280;41730;51.960;20.158;2023-01-31T01:35:03;99118.59;;;4.10;79.90
55801;BME280;41730;51.960;20.158;2023-01-31T01:37:35;99122.51;;;4.14;79.57
55801;BME280;41730;51.960;20.158;2023-01-31T01:40:09;99127.28;;;4.19;79.31
55801;BME280;41730;51.960;20.158;2023-01-31T01:42:41;99128.45;;;4.11;79.54
55801;BME280;41730;51.960;20.158;2023-01-31T01:45:14;99138.27;;;4.02;79.91
55801;BME280;41730;51.960;20.158;2023-01-31T01:47:54;99136.38;;;3.90;80.18
55801;BME280;41730;51.960;20.158;2023-01-31T01:50:31;99142.66;;;3.96;80.03
55801;BME280;41730;51.960;20.158;2023-01-31T01:53:05;99142.44;;;4.07;79.76
55801;BME280;41730;51.960;20.158;2023-01-31T01:55:42;99144.86;;;4.02;79.82
55801;BME280;41730;51.960;20.158;2023-01-31T01:58:16;99143.95;;;4.10;79.55
55801;BME280;41730;51.960;20.158;2023-01-31T02:00:51;99148.80;;;4.12;79.39
55801;BME280;41730;51.960;20.158;2023-01-31T02:03:24;99151.45;;;4.02;79.42
55801;BME280;41730;51.960;20.158;2023-01-31T02:05:59;99152.63;;;4.10;79.58
55801;BME280;41730;51.960;20.158;2023-01-31T02:08:34;99159.30;;;4.23;79.10
55801;BME280;41730;51.960;20.158;2023-01-31T02:11:11;99152.09;;;4.36;78.63
55801;BME280;41730;51.960;20.158;2023-01-31T02:13:46;99160.06;;;4.53;77.66
55801;BME280;41730;51.960;20.158;2023-01-31T02:16:18;99163.02;;;4.60;77.48
55801;BME280;41730;51.960;20.158;2023-01-31T02:18:50;99171.40;;;4.59;77.38
55801;BME280;41730;51.960;20.158;2023-01-31T02:31:11;99186.63;;;4.62;76.91
55801;BME280;41730;51.960;20.158;2023-01-31T02:33:54;99191.36;;;4.68;76.69
55801;BME280;41730;51.960;20.158;2023-01-31T02:36:35;99191.90;;;4.68;76.39
55801;BME280;41730;51.960;20.158;2023-01-31T02:39:19;99198.62;;;4.59;76.80
55801;BME280;41730;51.960;20.158;2023-01-31T02:42:00;99200.88;;;4.62;76.60
55801;BME280;41730;51.960;20.158;2023-01-31T02:44:40;99205.67;;;4.65;76.67
55801;BME280;41730;51.960;20.158;2023-01-31T02:47:40;99207.73;;;4.67;76.48
55801;BME280;41730;51.960;20.158;2023-01-31T02:50:23;99217.92;;;4.63;76.57
55801;BME280;41730;51.960;20.158;2023-01-31T02:53:01;99217.65;;;4.63;76.70
55801;BME280;41730;51.960;20.158;2023-01-31T02:55:38;99212.36;;;4.66;75.92
55801;BME280;41730;51.960;20.158;2023-01-31T02:58:32;99228.45;;;4.62;75.94
55801;BME280;41730;51.960;20.158;2023-01-31T03:01:09;99230.89;;;4.53;76.33
55801;BME280;41730;51.960;20.158;2023-01-31T03:03:44;99233.63;;;4.50;76.34
55801;BME280;41730;51.960;20.158;2023-01-31T03:06:51;99238.26;;;4.59;76.03
55801;BME280;41730;51.960;20.158;2023-01-31T03:09:37;99241.12;;;4.50;76.24
55801;BME280;41730;51.960;20.158;2023-01-31T03:12:30;99242.59;;;4.44;76.45
55801;BME280;41730;51.960;20.158;2023-01-31T03:18:25;99258.48;;;4.45;76.22
55801;BME280;41730;51.960;20.158;2023-01-31T03:21:04;99259.23;;;4.37;76.44
55801;BME280;41730;51.960;20.158;2023-01-31T03:23:39;99264.73;;;4.40;76.33
55801;BME280;41730;51.960;20.158;2023-01-31T03:26:12;99269.45;;;4.52;76.14
55801;BME280;41730;51.960;20.158;2023-01-31T03:28:44;99274.74;;;4.51;76.02
55801;BME280;41730;51.960;20.158;2023-01-31T03:31:19;99272.36;;;4.36;76.30
55801;BME280;41730;51.960;20.158;2023-01-31T03:33:50;99286.52;;;4.29;76.67
55801;BME280;41730;51.960;20.158;2023-01-31T03:36:28;99288.11;;;4.29;76.69
55801;BME280;41730;51.960;20.158;2023-01-31T03:39:10;99291.71;;;4.37;76.41
55801;BME280;41730;51.960;20.158;2023-01-31T03:41:56;99298.54;;;4.51;75.94
55801;BME280;41730;51.960;20.158;2023-01-31T03:44:38;99302.10;;;4.42;75.90
55801;BME280;41730;51.960;20.158;2023-01-31T03:47:14;99306.79;;;4.35;76.30
55801;BME280;41730;51.960;20.158;2023-01-31T03:49:48;99307.98;;;4.33;76.20
55801;BME280;41730;51.960;20.158;2023-01-31T03:52:27;99312.35;;;4.32;76.27
55801;BME280;41730;51.960;20.158;2023-01-31T03:55:04;99313.98;;;4.41;76.14
55801;BME280;41730;51.960;20.158;2023-01-31T03:57:39;99322.59;;;4.40;75.98
55801;BME280;41730;51.960;20.158;2023-01-31T04:00:14;99328.63;;;4.40;75.91
55801;BME280;41730;51.960;20.158;2023-01-31T04:02:51;99327.72;;;4.36;75.90
55801;BME280;41730;51.960;20.158;2023-01-31T04:05:28;99332.05;;;4.26;75.83
55801;BME280;41730;51.960;20.158;2023-01-31T04:08:01;99335.35;;;4.23;76.10
55801;BME280;41730;51.960;20.158;2023-01-31T04:10:33;99344.02;;;4.21;76.12
55801;BME280;41730;51.960;20.158;2023-01-31T04:13:04;99345.98;;;4.13;76.14
55801;BME280;41730;51.960;20.158;2023-01-31T04:15:37;99348.89;;;4.09;76.37
55801;BME280;41730;51.960;20.158;2023-01-31T04:18:09;99356.10;;;4.05;76.49
55801;BME280;41730;51.960;20.158;2023-01-31T04:20:40;99358.02;;;4.17;76.28
55801;BME280;41730;51.960;20.158;2023-01-31T04:23:12;99364.19;;;4.30;75.79
55801;BME280;41730;51.960;20.158;2023-01-31T04:25:44;99362.95;;;4.33;75.41
55801;BME280;41730;51.960;20.158;2023-01-31T04:28:17;99362.97;;;4.28;75.52
55801;BME280;41730;51.960;20.158;2023-01-31T04:30:53;99366.65;;;4.23;75.74
55801;BME280;41730;51.960;20.158;2023-01-31T04:33:24;99377.89;;;4.21;75.79
55801;BME280;41730;51.960;20.158;2023-01-31T04:35:58;99375.27;;;4.08;76.16
55801;BME280;41730;51.960;20.158;2023-01-31T04:38:33;99374.73;;;4.11;76.11
55801;BME280;41730;51.960;20.158;2023-01-31T04:41:10;99374.52;;;4.09;75.86
55801;BME280;41730;51.960;20.158;2023-01-31T04:43:44;99377.38;;;4.05;76.11
55801;BME280;41730;51.960;20.158;2023-01-31T04:46:15;99378.89;;;4.11;75.93
55801;BME280;41730;51.960;20.158;2023-01-31T04:48:47;99388.58;;;4.04;76.07
55801;BME280;41730;51.960;20.158;2023-01-31T04:51:18;99388.81;;;4.08;76.09
55801;BME280;41730;51.960;20.158;2023-01-31T04:53:51;99387.47;;;4.20;75.62
55801;BME280;41730;51.960;20.158;2023-01-31T04:56:23;99402.80;;;4.14;75.48
55801;BME280;41730;51.960;20.158;2023-01-31T04:58:54;99409.69;;;4.15;75.76
55801;BME280;41730;51.960;20.158;2023-01-31T05:01:26;99402.38;;;4.18;75.47
55801;BME280;41730;51.960;20.158;2023-01-31T05:03:59;99406.97;;;4.22;75.33
55801;BME280;41730;51.960;20.158;2023-01-31T05:06:31;99407.34;;;4.14;75.41
55801;BME280;41730;51.960;20.158;2023-01-31T05:09:03;99405.59;;;4.07;75.51
55801;BME280;41730;51.960;20.158;2023-01-31T05:11:35;99412.11;;;3.95;75.92
55801;BME280;41730;51.960;20.158;2023-01-31T05:14:08;99416.66;;;4.07;75.78
55801;BME280;41730;51.960;20.158;2023-01-31T05:16:40;99419.52;;;4.05;75.42
55801;BME280;41730;51.960;20.158;2023-01-31T05:19:17;99423.42;;;3.92;75.93
55801;BME280;41730;51.960;20.158;2023-01-31T05:21:48;99428.33;;;3.91;75.92
55801;BME280;41730;51.960;20.158;2023-01-31T05:24:29;99432.71;;;4.00;75.79
55801;BME280;41730;51.960;20.158;2023-01-31T05:27:02;99431.81;;;4.21;75.07
55801;BME280;41730;51.960;20.158;2023-01-31T05:29:34;99438.27;;;4.21;75.13
55801;BME280;41730;51.960;20.158;2023-01-31T05:32:07;99447.30;;;4.20;75.06
55801;BME280;41730;51.960;20.158;2023-01-31T05:34:39;99446.19;;;4.01;75.36
55801;BME280;41730;51.960;20.158;2023-01-31T05:37:11;99455.75;;;3.85;75.82
55801;BME280;41730;51.960;20.158;2023-01-31T05:39:43;99452.59;;;3.86;75.93
55801;BME280;41730;51.960;20.158;2023-01-31T05:42:14;99465.27;;;3.88;75.74
55801;BME280;41730;51.960;20.158;2023-01-31T05:44:47;99471.86;;;3.78;75.96
55801;BME280;41730;51.960;20.158;2023-01-31T05:47:19;99477.63;;;3.74;76.12
55801;BME280;41730;51.960;20.158;2023-01-31T05:49:53;99486.95;;;3.70;76.17
55801;BME280;41730;51.960;20.158;2023-01-31T05:52:24;99493.73;;;3.75;76.17
55801;BME280;41730;51.960;20.158;2023-01-31T05:54:57;99498.82;;;3.74;75.94
55801;BME280;41730;51.960;20.158;2023-01-31T05:57:29;99508.02;;;3.76;76.02
55801;BME280;41730;51.960;20.158;2023-01-31T06:00:01;99510.24;;;3.79;75.80
55801;BME280;41730;51.960;20.158;2023-01-31T06:02:33;99520.81;;;3.77;75.70
55801;BME280;41730;51.960;20.158;2023-01-31T06:05:07;99521.71;;;3.76;75.64
55801;BME280;41730;51.960;20.158;2023-01-31T06:07:40;99528.52;;;3.68;75.74
55801;BME280;41730;51.960;20.158;2023-01-31T06:10:13;99531.77;;;3.63;75.99
55801;BME280;41730;51.960;20.158;2023-01-31T06:12:45;99535.77;;;3.69;75.75
55801;BME280;41730;51.960;20.158;2023-01-31T06:15:17;99542.84;;;3.69;75.65
55801;BME280;41730;51.960;20.158;2023-01-31T06:17:50;99553.01;;;3.61;75.86
55801;BME280;41730;51.960;20.158;2023-01-31T06:20:22;99555.97;;;3.61;75.90
55801;BME280;41730;51.960;20.158;2023-01-31T06:22:54;99560.84;;;3.61;75.99
55801;BME280;41730;51.960;20.158;2023-01-31T06:25:26;99560.52;;;3.69;75.85
55801;BME280;41730;51.960;20.158;2023-01-31T06:27:57;99571.34;;;3.76;75.29
55801;BME280;41730;51.960;20.158;2023-01-31T06:30:29;99576.52;;;3.73;75.34
55801;BME280;41730;51.960;20.158;2023-01-31T06:33:02;99571.89;;;3.73;75.20
55801;BME280;41730;51.960;20.158;2023-01-31T06:35:34;99582.71;;;3.72;75.22
55801;BME280;41730;51.960;20.158;2023-01-31T06:38:06;99590.84;;;3.75;75.13
55801;BME280;41730;51.960;20.158;2023-01-31T06:40:38;99584.61;;;3.69;75.27
55801;BME280;41730;51.960;20.158;2023-01-31T06:43:10;99585.92;;;3.75;75.00
55801;BME280;41730;51.960;20.158;2023-01-31T06:45:43;99587.56;;;3.82;74.46
55801;BME280;41730;51.960;20.158;2023-01-31T06:48:14;99594.06;;;3.94;74.20
55801;BME280;41730;51.960;20.158;2023-01-31T06:50:47;99602.10;;;4.01;73.85
55801;BME280;41730;51.960;20.158;2023-01-31T06:53:19;99601.31;;;4.05;73.71
55801;BME280;41730;51.960;20.158;2023-01-31T06:55:51;99603.19;;;3.98;73.70
55801;BME280;41730;51.960;20.158;2023-01-31T06:58:24;99604.65;;;3.89;73.87
55801;BME280;41730;51.960;20.158;2023-01-31T07:00:56;99606.75;;;3.86;74.15
55801;BME280;41730;51.960;20.158;2023-01-31T07:03:28;99610.92;;;3.88;74.14
55801;BME280;41730;51.960;20.158;2023-01-31T07:06:00;99607.84;;;4.10;73.27
55801;BME280;41730;51.960;20.158;2023-01-31T07:08:32;99612.08;;;4.08;73.11
55801;BME280;41730;51.960;20.158;2023-01-31T07:11:06;99616.65;;;3.99;73.31
55801;BME280;41730;51.960;20.158;2023-01-31T07:13:38;99615.60;;;4.07;73.01
55801;BME280;41730;51.960;20.158;2023-01-31T07:16:10;99620.95;;;4.00;73.32
55801;BME280;41730;51.960;20.158;2023-01-31T07:18:42;99628.37;;;3.90;73.35
55801;BME280;41730;51.960;20.158;2023-01-31T07:21:15;99631.14;;;3.78;73.76
55801;BME280;41730;51.960;20.158;2023-01-31T07:23:47;99632.38;;;3.89;73.52
55801;BME280;41730;51.960;20.158;2023-01-31T07:26:20;99641.58;;;4.00;73.22
55801;BME280;41730;51.960;20.158;2023-01-31T07:28:52;99643.34;;;4.18;72.65
55801;BME280;41730;51.960;20.158;2023-01-31T07:31:25;99648.73;;;4.29;72.21
55801;BME280;41730;51.960;20.158;2023-01-31T07:33:57;99648.93;;;4.25;72.39
55801;BME280;41730;51.960;20.158;2023-01-31T07:36:29;99654.19;;;4.17;72.18
55801;BME280;41730;51.960;20.158;2023-01-31T07:39:02;99661.94;;;4.04;72.51
55801;BME280;41730;51.960;20.158;2023-01-31T07:41:35;99662.30;;;4.04;72.63
55801;BME280;41730;51.960;20.158;2023-01-31T07:44:07;99667.44;;;4.05;72.93
55801;BME280;41730;51.960;20.158;2023-01-31T07:46:42;99667.92;;;4.09;72.86
55801;BME280;41730;51.960;20.158;2023-01-31T07:49:14;99668.00;;;4.10;72.80
55801;BME280;41730;51.960;20.158;2023-01-31T07:51:46;99673.50;;;4.05;72.61
55801;BME280;41730;51.960;20.158;2023-01-31T07:54:17;99672.17;;;4.01;72.97
55801;BME280;41730;51.960;20.158;2023-01-31T07:56:49;99674.67;;;4.06;73.15
55801;BME280;41730;51.960;20.158;2023-01-31T07:59:21;99677.41;;;4.12;72.70
55801;BME280;41730;51.960;20.158;2023-01-31T08:01:53;99689.11;;;4.02;72.90
55801;BME280;41730;51.960;20.158;2023-01-31T08:04:41;99686.88;;;4.13;73.03
55801;BME280;41730;51.960;20.158;2023-01-31T08:07:14;99687.38;;;4.19;72.76
55801;BME280;41730;51.960;20.158;2023-01-31T08:09:46;99695.09;;;4.23;72.61
55801;BME280;41730;51.960;20.158;2023-01-31T08:12:19;99694.70;;;4.18;72.55
55801;BME280;41730;51.960;20.158;2023-01-31T08:14:51;99697.70;;;4.28;72.30
55801;BME280;41730;51.960;20.158;2023-01-31T08:17:23;99703.20;;;4.26;72.10
55801;BME280;41730;51.960;20.158;2023-01-31T08:19:55;99710.26;;;4.19;72.21
55801;BME280;41730;51.960;20.158;2023-01-31T08:22:28;99710.07;;;4.14;72.14
55801;BME280;41730;51.960;20.158;2023-01-31T08:25:01;99715.16;;;4.16;72.08
55801;BME280;41730;51.960;20.158;2023-01-31T08:27:33;99718.71;;;4.12;72.31
55801;BME280;41730;51.960;20.158;2023-01-31T08:30:06;99722.96;;;4.11;72.22
55801;BME280;41730;51.960;20.158;2023-01-31T08:32:38;99724.77;;;4.12;72.16
55801;BME280;41730;51.960;20.158;2023-01-31T08:35:11;99725.27;;;4.29;71.83
55801;BME280;41730;51.960;20.158;2023-01-31T08:37:43;99728.98;;;4.27;71.84
55801;BME280;41730;51.960;20.158;2023-01-31T08:40:16;99723.58;;;4.20;72.21
55801;BME280;41730;51.960;20.158;2023-01-31T08:42:55;99730.11;;;4.15;72.68
55801;BME280;41730;51.960;20.158;2023-01-31T08:45:28;99737.94;;;4.34;72.87
55801;BME280;41730;51.960;20.158;2023-01-31T08:48:01;99730.29;;;4.61;72.94
55801;BME280;41730;51.960;20.158;2023-01-31T08:50:33;99730.34;;;4.73;73.77
55801;BME280;41730;51.960;20.158;2023-01-31T08:53:07;99729.60;;;5.03;73.95
55801;BME280;41730;51.960;20.158;2023-01-31T08:55:39;99733.42;;;5.23;73.87
55801;BME280;41730;51.960;20.158;2023-01-31T08:58:12;99730.28;;;5.49;73.18
55801;BME280;41730;51.960;20.158;2023-01-31T09:00:44;99723.27;;;5.90;72.04
55801;BME280;41730;51.960;20.158;2023-01-31T09:03:17;99728.48;;;5.95;71.52
55801;BME280;41730;51.960;20.158;2023-01-31T09:05:49;99726.65;;;6.06;70.58
55801;BME280;41730;51.960;20.158;2023-01-31T09:08:21;99725.10;;;6.15;69.94
55801;BME280;41730;51.960;20.158;2023-01-31T09:10:54;99732.67;;;6.22;69.54
55801;BME280;41730;51.960;20.158;2023-01-31T09:13:27;99732.41;;;6.32;69.35
55801;BME280;41730;51.960;20.158;2023-01-31T09:16:02;99734.43;;;6.43;69.25
55801;BME280;41730;51.960;20.158;2023-01-31T09:18:37;99743.21;;;6.51;69.37
55801;BME280;41730;51.960;20.158;2023-01-31T09:21:12;99743.27;;;6.65;69.28
55801;BME280;41730;51.960;20.158;2023-01-31T09:23:45;99743.73;;;6.73;68.61
55801;BME280;41730;51.960;20.158;2023-01-31T09:26:17;99747.27;;;6.77;67.69
55801;BME280;41730;51.960;20.158;2023-01-31T09:28:49;99749.86;;;6.72;67.34
55801;BME280;41730;51.960;20.158;2023-01-31T09:31:21;99748.20;;;6.59;66.66
55801;BME280;41730;51.960;20.158;2023-01-31T09:33:55;99747.49;;;6.47;65.86
55801;BME280;41730;51.960;20.158;2023-01-31T09:36:27;99753.68;;;6.41;65.75
55801;BME280;41730;51.960;20.158;2023-01-31T09:38:59;99756.55;;;6.16;66.44
55801;BME280;41730;51.960;20.158;2023-01-31T09:41:35;99759.29;;;6.02;65.95
55801;BME280;41730;51.960;20.158;2023-01-31T09:44:13;99762.73;;;5.98;65.33
55801;BME280;41730;51.960;20.158;2023-01-31T09:46:49;99763.90;;;6.03;65.30
55801;BME280;41730;51.960;20.158;2023-01-31T09:49:24;99769.54;;;6.02;65.10
55801;BME280;41730;51.960;20.158;2023-01-31T09:52:01;99774.38;;;6.12;64.95
55801;BME280;41730;51.960;20.158;2023-01-31T09:54:36;99767.86;;;6.06;65.23
55801;BME280;41730;51.960;20.158;2023-01-31T09:57:19;99769.13;;;5.98;65.16
55801;BME280;41730;51.960;20.158;2023-01-31T10:00:01;99772.73;;;5.91;65.43
55801;BME280;41730;51.960;20.158;2023-01-31T10:05:47;99785.45;;;5.98;64.92
55801;BME280;41730;51.960;20.158;2023-01-31T10:08:33;99782.53;;;5.96;64.99
55801;BME280;41730;51.960;20.158;2023-01-31T10:11:12;99784.47;;;5.95;65.16
55801;BME280;41730;51.960;20.158;2023-01-31T10:16:27;99791.81;;;5.80;65.24
55801;BME280;41730;51.960;20.158;2023-01-31T10:19:04;99785.11;;;5.79;65.47
55801;BME280;41730;51.960;20.158;2023-01-31T10:21:41;99783.95;;;5.75;65.62
55801;BME280;41730;51.960;20.158;2023-01-31T10:24:19;99785.48;;;5.72;65.77
55801;BME280;41730;51.960;20.158;2023-01-31T10:26:59;99777.59;;;5.79;65.47
55801;BME280;41730;51.960;20.158;2023-01-31T10:29:38;99784.51;;;5.77;65.49
55801;BME280;41730;51.960;20.158;2023-01-31T10:32:17;99784.60;;;5.76;65.33
55801;BME280;41730;51.960;20.158;2023-01-31T10:34:54;99790.31;;;5.73;65.80
55801;BME280;41730;51.960;20.158;2023-01-31T10:37:32;99784.89;;;5.71;65.72
55801;BME280;41730;51.960;20.158;2023-01-31T10:40:14;99787.53;;;5.78;65.54
55801;BME280;41730;51.960;20.158;2023-01-31T10:42:50;99784.95;;;5.88;65.49
55801;BME280;41730;51.960;20.158;2023-01-31T10:45:26;99785.65;;;5.91;65.15
55801;BME280;41730;51.960;20.158;2023-01-31T10:48:12;99782.55;;;5.88;65.06
55801;BME280;41730;51.960;20.158;2023-01-31T10:50:54;99780.20;;;5.89;64.55
55801;BME280;41730;51.960;20.158;2023-01-31T10:53:40;99779.45;;;5.90;64.16
55801;BME280;41730;51.960;20.158;2023-01-31T10:56:19;99777.89;;;5.94;64.48
55801;BME280;41730;51.960;20.158;2023-01-31T10:58:54;99776.92;;;5.99;64.24
55801;BME280;41730;51.960;20.158;2023-01-31T11:01:28;99778.40;;;5.95;64.17
55801;BME280;41730;51.960;20.158;2023-01-31T11:04:01;99778.45;;;5.91;64.10
55801;BME280;41730;51.960;20.158;2023-01-31T11:06:45;99774.32;;;5.91;64.27
55801;BME280;41730;51.960;20.158;2023-01-31T11:09:17;99773.78;;;5.94;64.17
55801;BME280;41730;51.960;20.158;2023-01-31T11:11:57;99769.88;;;6.00;63.91
55801;BME280;41730;51.960;20.158;2023-01-31T11:14:30;99771.69;;;6.02;64.20
55801;BME280;41730;51.960;20.158;2023-01-31T11:17:06;99769.98;;;6.10;64.03
55801;BME280;41730;51.960;20.158;2023-01-31T11:19:42;99763.29;;;6.12;63.59
55801;BME280;41730;51.960;20.158;2023-01-31T11:22:23;99769.52;;;6.15;63.04
55801;BME280;41730;51.960;20.158;2023-01-31T11:24:58;99772.71;;;6.24;61.96
55801;BME280;41730;51.960;20.158;2023-01-31T11:27:38;99772.55;;;6.16;62.29
55801;BME280;41730;51.960;20.158;2023-01-31T11:30:21;99776.17;;;6.14;61.97
55801;BME280;41730;51.960;20.158;2023-01-31T11:32:54;99773.27;;;6.04;61.89
55801;BME280;41730;51.960;20.158;2023-01-31T11:35:28;99777.78;;;6.01;61.32
55801;BME280;41730;51.960;20.158;2023-01-31T11:38:01;99774.70;;;6.03;61.32
55801;BME280;41730;51.960;20.158;2023-01-31T11:40:35;99777.04;;;6.07;61.05
55801;BME280;41730;51.960;20.158;2023-01-31T11:43:24;99776.90;;;5.99;60.97
55801;BME280;41730;51.960;20.158;2023-01-31T11:45:59;99785.94;;;5.99;61.02
55801;BME280;41730;51.960;20.158;2023-01-31T11:48:38;99780.77;;;6.13;60.46
55801;BME280;41730;51.960;20.158;2023-01-31T11:51:21;99783.14;;;6.16;59.51
55801;BME280;41730;51.960;20.158;2023-01-31T11:53:54;99777.48;;;6.01;59.33
55801;BME280;41730;51.960;20.158;2023-01-31T11:56:29;99776.73;;;5.88;59.28
55801;BME280;41730;51.960;20.158;2023-01-31T11:59:02;99771.84;;;5.71;59.36
55801;BME280;41730;51.960;20.158;2023-01-31T12:01:45;99772.93;;;5.58;59.33
55801;BME280;41730;51.960;20.158;2023-01-31T12:04:20;99767.05;;;5.50;59.90
55801;BME280;41730;51.960;20.158;2023-01-31T12:07:00;99761.02;;;5.49;59.80
55801;BME280;41730;51.960;20.158;2023-01-31T12:09:42;99766.57;;;5.47;59.77
55801;BME280;41730;51.960;20.158;2023-01-31T12:12:28;99764.59;;;5.50;59.62
55801;BME280;41730;51.960;20.158;2023-01-31T12:15:03;99764.64;;;5.47;59.97
55801;BME280;41730;51.960;20.158;2023-01-31T12:17:39;99759.89;;;5.48;60.28
55801;BME280;41730;51.960;20.158;2023-01-31T12:20:21;99753.95;;;5.56;60.43
55801;BME280;41730;51.960;20.158;2023-01-31T12:23:05;99744.52;;;5.54;60.62
55801;BME280;41730;51.960;20.158;2023-01-31T12:25:49;99743.29;;;5.57;60.94
55801;BME280;41730;51.960;20.158;2023-01-31T12:28:36;99737.25;;;5.66;60.67
55801;BME280;41730;51.960;20.158;2023-01-31T12:31:30;99731.68;;;5.73;60.52
55801;BME280;41730;51.960;20.158;2023-01-31T12:34:23;99738.41;;;5.77;60.52
55801;BME280;41730;51.960;20.158;2023-01-31T12:37:16;99729.67;;;5.88;60.36
55801;BME280;41730;51.960;20.158;2023-01-31T12:40:04;99730.83;;;5.81;60.44
55801;BME280;41730;51.960;20.158;2023-01-31T12:42:58;99734.33;;;5.75;60.91
55801;BME280;41730;51.960;20.158;2023-01-31T12:45:44;99731.14;;;5.74;60.68
55801;BME280;41730;51.960;20.158;2023-01-31T12:48:34;99728.48;;;5.65;60.62
55801;BME280;41730;51.960;20.158;2023-01-31T12:51:17;99734.89;;;5.53;60.91
55801;BME280;41730;51.960;20.158;2023-01-31T12:53:58;99728.20;;;5.41;61.17
55801;BME280;41730;51.960;20.158;2023-01-31T12:56:51;99729.92;;;5.37;61.48
55801;BME280;41730;51.960;20.158;2023-01-31T12:59:38;99730.20;;;5.32;61.70
55801;BME280;41730;51.960;20.158;2023-01-31T13:02:30;99728.41;;;5.38;61.60
55801;BME280;41730;51.960;20.158;2023-01-31T13:05:14;99726.60;;;5.39;61.59
55801;BME280;41730;51.960;20.158;2023-01-31T13:07:51;99724.81;;;5.40;61.62
55801;BME280;41730;51.960;20.158;2023-01-31T13:10:32;99718.34;;;5.40;61.73
55801;BME280;41730;51.960;20.158;2023-01-31T13:13:13;99715.48;;;5.36;61.94
55801;BME280;41730;51.960;20.158;2023-01-31T13:15:49;99713.13;;;5.53;61.71
55801;BME280;41730;51.960;20.158;2023-01-31T13:18:23;99714.40;;;5.52;61.83
55801;BME280;41730;51.960;20.158;2023-01-31T13:20:58;99711.00;;;5.51;61.94
55801;BME280;41730;51.960;20.158;2023-01-31T13:23:35;99707.88;;;5.51;62.25
55801;BME280;41730;51.960;20.158;2023-01-31T13:26:12;99712.39;;;5.56;62.07
55801;BME280;41730;51.960;20.158;2023-01-31T13:28:49;99709.34;;;5.52;62.12
55801;BME280;41730;51.960;20.158;2023-01-31T13:31:26;99707.71;;;5.46;62.34
55801;BME280;41730;51.960;20.158;2023-01-31T13:34:03;99708.54;;;5.39;62.07
55801;BME280;41730;51.960;20.158;2023-01-31T13:36:42;99699.17;;;5.39;62.19
55801;BME280;41730;51.960;20.158;2023-01-31T13:39:18;99698.86;;;5.38;61.89
55801;BME280;41730;51.960;20.158;2023-01-31T13:41:52;99696.84;;;5.34;61.71
55801;BME280;41730;51.960;20.158;2023-01-31T13:44:24;99692.20;;;5.31;61.51
55801;BME280;41730;51.960;20.158;2023-01-31T13:46:59;99683.48;;;5.29;61.52
55801;BME280;41730;51.960;20.158;2023-01-31T13:49:36;99681.94;;;5.26;61.58
55801;BME280;41730;51.960;20.158;2023-01-31T13:52:14;99681.00;;;5.15;61.97
55801;BME280;41730;51.960;20.158;2023-01-31T13:54:49;99684.80;;;5.17;62.14
55801;BME280;41730;51.960;20.158;2023-01-31T13:57:27;99683.89;;;5.08;62.00
55801;BME280;41730;51.960;20.158;2023-01-31T14:00:06;99685.37;;;5.04;62.26
55801;BME280;41730;51.960;20.158;2023-01-31T14:02:39;99683.89;;;5.18;61.91